sensor_id;sensor_type;location;lat;lon;timestamp;temperature;humidity
18882;DHT22;9573;50.948;11.600;2022-07-19T00:00:22;17.60;99.90
18882;DHT22;9573;50.948;11.600;2022-07-19T00:02:50;17.50;99.90
18882;DHT22;9573;50.948;11.600;2022-07-19T00:05:19;17.50;99.90
18882;DHT22;9573;50.948;11.600;2022-07-19T00:07:47;17.50;99.90
18882;DHT22;9573;50.948;11.600;2022-07-19T00:10:16;17.40;99.90
18882;DHT22;9573;50.948;11.600;2022-07-19T00:12:44;17.40;99.90
18882;DHT22;9573;50.948;11.600;2022-07-19T00:15:13;17.30;99.90
18882;DHT22;9573;50.948;11.600;2022-07-19T00:17:42;17.30;99.90
18882;DHT22;9573;50.948;11.600;2022-07-19T00:20:12;17.20;99.90
18882;DHT22;9573;50.948;11.600;2022-07-19T00:22:42;17.20;99.90
18882;DHT22;9573;50.948;11.600;2022-07-19T00:25:10;17.20;99.90
18882;DHT22;9573;50.948;11.600;2022-07-19T00:27:38;17.10;99.90
18882;DHT22;9573;50.948;11.600;2022-07-19T00:30:07;17.10;99.90
18882;DHT22;9573;50.948;11.600;2022-07-19T00:32:35;17.10;99.90
18882;DHT22;9573;50.948;11.600;2022-07-19T00:35:02;17.00;99.90
18882;DHT22;9573;50.948;11.600;2022-07-19T00:37:30;17.00;99.90
18882;DHT22;9573;50.948;11.600;2022-07-19T00:39:58;17.00;99.90
18882;DHT22;9573;50.948;11.600;2022-07-19T00:42:25;17.00;99.90
18882;DHT22;9573;50.948;11.600;2022-07-19T00:44:52;16.90;99.90
18882;DHT22;9573;50.948;11.600;2022-07-19T00:47:20;17.00;99.90
18882;DHT22;9573;50.948;11.600;2022-07-19T00:49:47;16.90;99.90
18882;DHT22;9573;50.948;11.600;2022-07-19T00:52:15;16.80;99.90
18882;DHT22;9573;50.948;11.600;2022-07-19T00:54:43;16.80;99.90
18882;DHT22;9573;50.948;11.600;2022-07-19T00:57:15;16.80;99.90
18882;DHT22;9573;50.948;11.600;2022-07-19T00:59:42;16.80;99.90
18882;DHT22;9573;50.948;11.600;2022-07-19T01:02:12;16.70;99.90
18882;DHT22;9573;50.948;11.600;2022-07-19T01:04:41;16.70;99.90
18882;DHT22;9573;50.948;11.600;2022-07-19T01:07:08;16.70;99.90
18882;DHT22;9573;50.948;11.600;2022-07-19T01:09:36;16.60;99.90
18882;DHT22;9573;50.948;11.600;2022-07-19T01:12:06;16.60;99.90
18882;DHT22;9573;50.948;11.600;2022-07-19T01:14:35;16.50;99.90
18882;DHT22;9573;50.948;11.600;2022-07-19T01:17:02;16.50;99.90
18882;DHT22;9573;50.948;11.600;2022-07-19T01:19:29;16.50;99.90
18882;DHT22;9573;50.948;11.600;2022-07-19T01:21:59;16.50;99.90
18882;DHT22;9573;50.948;11.600;2022-07-19T01:24:26;16.50;99.90
18882;DHT22;9573;50.948;11.600;2022-07-19T01:26:53;16.40;99.90
18882;DHT22;9573;50.948;11.600;2022-07-19T01:29:21;16.40;99.90
18882;DHT22;9573;50.948;11.600;2022-07-19T01:31:48;16.40;99.90
18882;DHT22;9573;50.948;11.600;2022-07-19T01:34:15;16.40;99.90
18882;DHT22;9573;50.948;11.600;2022-07-19T01:36:42;16.40;99.90
18882;DHT22;9573;50.948;11.600;2022-07-19T01:39:11;16.30;99.90
18882;DHT22;9573;50.948;11.600;2022-07-19T01:41:38;16.30;99.90
18882;DHT22;9573;50.948;11.600;2022-07-19T01:44:05;16.30;99.90
18882;DHT22;9573;50.948;11.600;2022-07-19T01:46:35;16.30;99.90
18882;DHT22;9573;50.948;11.600;2022-07-19T01:49:02;16.20;99.90
18882;DHT22;9573;50.948;11.600;2022-07-19T01:51:29;16.20;99.90
18882;DHT22;9573;50.948;11.600;2022-07-19T01:53:58;16.20;99.90
18882;DHT22;9573;50.948;11.600;2022-07-19T01:56:27;16.20;99.90
18882;DHT22;9573;50.948;11.600;2022-07-19T01:58:54;16.10;99.90
18882;DHT22;9573;50.948;11.600;2022-07-19T02:01:21;16.10;99.90
18882;DHT22;9573;50.948;11.600;2022-07-19T02:03:48;16.00;99.90
18882;DHT22;9573;50.948;11.600;2022-07-19T02:06:15;16.00;99.90
18882;DHT22;9573;50.948;11.600;2022-07-19T02:08:42;16.00;99.90
18882;DHT22;9573;50.948;11.600;2022-07-19T02:11:10;15.90;99.90
18882;DHT22;9573;50.948;11.600;2022-07-19T02:14:10;15.90;99.90
18882;DHT22;9573;50.948;11.600;2022-07-19T02:16:38;15.90;99.90
18882;DHT22;9573;50.948;11.600;2022-07-19T02:19:06;15.90;99.90
18882;DHT22;9573;50.948;11.600;2022-07-19T02:21:34;15.80;99.90
18882;DHT22;9573;50.948;11.600;2022-07-19T02:24:02;15.80;99.90
18882;DHT22;9573;50.948;11.600;2022-07-19T02:26:32;15.80;99.90
18882;DHT22;9573;50.948;11.600;2022-07-19T02:28:59;15.80;99.90
18882;DHT22;9573;50.948;11.600;2022-07-19T02:31:28;15.70;99.90
18882;DHT22;9573;50.948;11.600;2022-07-19T02:33:55;15.70;99.90
18882;DHT22;9573;50.948;11.600;2022-07-19T02:36:22;15.70;99.90
18882;DHT22;9573;50.948;11.600;2022-07-19T02:38:49;15.60;99.90
18882;DHT22;9573;50.948;11.600;2022-07-19T02:41:16;15.60;99.90
18882;DHT22;9573;50.948;11.600;2022-07-19T02:43:43;15.60;99.90
18882;DHT22;9573;50.948;11.600;2022-07-19T02:46:11;15.60;99.90
18882;DHT22;9573;50.948;11.600;2022-07-19T02:48:39;15.60;99.90
18882;DHT22;9573;50.948;11.600;2022-07-19T02:51:09;15.60;99.90
18882;DHT22;9573;50.948;11.600;2022-07-19T02:53:37;15.60;99.90
18882;DHT22;9573;50.948;11.600;2022-07-19T02:56:05;15.50;99.90
18882;DHT22;9573;50.948;11.600;2022-07-19T02:58:32;15.50;99.90
18882;DHT22;9573;50.948;11.600;2022-07-19T03:00:59;15.50;99.90
18882;DHT22;9573;50.948;11.600;2022-07-19T03:03:26;15.40;99.90
18882;DHT22;9573;50.948;11.600;2022-07-19T03:06:15;15.40;99.90
18882;DHT22;9573;50.948;11.600;2022-07-19T03:08:44;15.40;99.90
18882;DHT22;9573;50.948;11.600;2022-07-19T03:11:12;15.40;99.90
18882;DHT22;9573;50.948;11.600;2022-07-19T03:13:39;15.20;99.90
18882;DHT22;9573;50.948;11.600;2022-07-19T03:16:07;15.40;99.90
18882;DHT22;9573;50.948;11.600;2022-07-19T03:18:35;15.30;99.90
18882;DHT22;9573;50.948;11.600;2022-07-19T03:21:02;15.30;99.90
18882;DHT22;9573;50.948;11.600;2022-07-19T03:23:33;15.30;99.90
18882;DHT22;9573;50.948;11.600;2022-07-19T03:26:01;15.30;99.90
18882;DHT22;9573;50.948;11.600;2022-07-19T03:28:28;15.30;99.90
18882;DHT22;9573;50.948;11.600;2022-07-19T03:30:56;15.30;99.90
18882;DHT22;9573;50.948;11.600;2022-07-19T03:33:23;15.30;99.90
18882;DHT22;9573;50.948;11.600;2022-07-19T03:35:50;15.30;99.90
18882;DHT22;9573;50.948;11.600;2022-07-19T03:38:17;15.30;99.90
18882;DHT22;9573;50.948;11.600;2022-07-19T03:40:46;15.40;99.90
18882;DHT22;9573;50.948;11.600;2022-07-19T03:43:14;15.40;99.90
18882;DHT22;9573;50.948;11.600;2022-07-19T03:45:41;15.40;99.90
18882;DHT22;9573;50.948;11.600;2022-07-19T03:48:08;15.50;99.90
18882;DHT22;9573;50.948;11.600;2022-07-19T03:50:36;15.90;99.90
18882;DHT22;9573;50.948;11.600;2022-07-19T03:53:03;16.50;99.90
18882;DHT22;9573;50.948;11.600;2022-07-19T03:55:31;16.70;99.90
18882;DHT22;9573;50.948;11.600;2022-07-19T03:57:59;16.60;99.90
18882;DHT22;9573;50.948;11.600;2022-07-19T04:00:26;16.30;99.90
18882;DHT22;9573;50.948;11.600;2022-07-19T04:02:54;16.20;99.90
18882;DHT22;9573;50.948;11.600;2022-07-19T04:05:21;16.10;99.90
18882;DHT22;9573;50.948;11.600;2022-07-19T04:07:48;16.10;99.90
18882;DHT22;9573;50.948;11.600;2022-07-19T04:10:15;16.20;99.90
18882;DHT22;9573;50.948;11.600;2022-07-19T04:12:42;16.20;99.90
18882;DHT22;9573;50.948;11.600;2022-07-19T04:15:11;16.30;99.90
18882;DHT22;9573;50.948;11.600;2022-07-19T04:17:38;16.50;99.90
18882;DHT22;9573;50.948;11.600;2022-07-19T04:20:06;17.10;99.90
18882;DHT22;9573;50.948;11.600;2022-07-19T04:22:33;18.20;99.90
18882;DHT22;9573;50.948;11.600;2022-07-19T04:25:00;19.40;99.90
18882;DHT22;9573;50.948;11.600;2022-07-19T04:27:29;20.50;99.90
18882;DHT22;9573;50.948;11.600;2022-07-19T04:29:57;21.50;99.90
18882;DHT22;9573;50.948;11.600;2022-07-19T04:32:25;22.30;99.90
18882;DHT22;9573;50.948;11.600;2022-07-19T04:34:54;22.90;99.90
18882;DHT22;9573;50.948;11.600;2022-07-19T04:37:21;22.80;99.90
18882;DHT22;9573;50.948;11.600;2022-07-19T04:39:48;22.50;99.90
18882;DHT22;9573;50.948;11.600;2022-07-19T04:42:16;22.90;99.90
18882;DHT22;9573;50.948;11.600;2022-07-19T04:44:43;23.70;98.30
18882;DHT22;9573;50.948;11.600;2022-07-19T04:47:10;24.50;95.50
18882;DHT22;9573;50.948;11.600;2022-07-19T04:49:38;24.90;92.70
18882;DHT22;9573;50.948;11.600;2022-07-19T04:52:06;25.60;91.30
18882;DHT22;9573;50.948;11.600;2022-07-19T04:54:33;26.00;85.60
18882;DHT22;9573;50.948;11.600;2022-07-19T04:57:00;26.10;83.00
18882;DHT22;9573;50.948;11.600;2022-07-19T04:59:28;26.60;81.20
18882;DHT22;9573;50.948;11.600;2022-07-19T05:01:55;26.90;77.70
18882;DHT22;9573;50.948;11.600;2022-07-19T05:04:22;27.10;75.30
18882;DHT22;9573;50.948;11.600;2022-07-19T05:06:50;27.70;74.50
18882;DHT22;9573;50.948;11.600;2022-07-19T05:09:22;28.40;71.30
18882;DHT22;9573;50.948;11.600;2022-07-19T05:11:50;28.70;67.60
18882;DHT22;9573;50.948;11.600;2022-07-19T05:14:17;28.90;65.90
18882;DHT22;9573;50.948;11.600;2022-07-19T05:16:45;28.70;64.30
18882;DHT22;9573;50.948;11.600;2022-07-19T05:19:15;29.30;64.80
18882;DHT22;9573;50.948;11.600;2022-07-19T05:21:43;30.00;62.40
18882;DHT22;9573;50.948;11.600;2022-07-19T05:24:11;30.10;60.00
18882;DHT22;9573;50.948;11.600;2022-07-19T05:26:38;30.40;58.40
18882;DHT22;9573;50.948;11.600;2022-07-19T05:29:06;30.20;59.00
18882;DHT22;9573;50.948;11.600;2022-07-19T05:31:33;30.50;57.60
18882;DHT22;9573;50.948;11.600;2022-07-19T05:34:00;31.00;57.40
18882;DHT22;9573;50.948;11.600;2022-07-19T05:36:28;31.40;56.00
18882;DHT22;9573;50.948;11.600;2022-07-19T05:38:55;31.60;55.40
18882;DHT22;9573;50.948;11.600;2022-07-19T05:41:23;31.90;54.30
18882;DHT22;9573;50.948;11.600;2022-07-19T05:43:51;31.70;54.90
18882;DHT22;9573;50.948;11.600;2022-07-19T05:46:19;31.80;54.20
18882;DHT22;9573;50.948;11.600;2022-07-19T05:48:46;32.10;53.80
18882;DHT22;9573;50.948;11.600;2022-07-19T05:51:14;32.30;52.70
18882;DHT22;9573;50.948;11.600;2022-07-19T05:53:42;32.50;52.30
18882;DHT22;9573;50.948;11.600;2022-07-19T05:56:09;33.10;51.60
18882;DHT22;9573;50.948;11.600;2022-07-19T05:58:38;33.20;50.80
18882;DHT22;9573;50.948;11.600;2022-07-19T06:01:06;33.50;50.60
18882;DHT22;9573;50.948;11.600;2022-07-19T06:03:46;33.50;50.70
18882;DHT22;9573;50.948;11.600;2022-07-19T06:06:13;34.10;49.40
18882;DHT22;9573;50.948;11.600;2022-07-19T06:08:41;34.70;49.20
18882;DHT22;9573;50.948;11.600;2022-07-19T06:11:09;35.30;48.10
18882;DHT22;9573;50.948;11.600;2022-07-19T06:13:38;35.40;47.30
18882;DHT22;9573;50.948;11.600;2022-07-19T06:16:06;35.00;47.20
18882;DHT22;9573;50.948;11.600;2022-07-19T06:18:34;35.20;47.30
18882;DHT22;9573;50.948;11.600;2022-07-19T06:21:03;35.10;46.60
18882;DHT22;9573;50.948;11.600;2022-07-19T06:23:31;35.20;46.50
18882;DHT22;9573;50.948;11.600;2022-07-19T06:25:58;35.30;46.50
18882;DHT22;9573;50.948;11.600;2022-07-19T06:28:26;35.40;46.70
18882;DHT22;9573;50.948;11.600;2022-07-19T06:30:54;35.80;45.90
18882;DHT22;9573;50.948;11.600;2022-07-19T06:33:22;36.10;45.40
18882;DHT22;9573;50.948;11.600;2022-07-19T06:35:49;36.40;45.10
18882;DHT22;9573;50.948;11.600;2022-07-19T06:38:16;37.20;44.40
18882;DHT22;9573;50.948;11.600;2022-07-19T06:40:44;37.70;43.80
18882;DHT22;9573;50.948;11.600;2022-07-19T06:43:11;38.00;43.20
18882;DHT22;9573;50.948;11.600;2022-07-19T06:45:38;38.40;43.10
18882;DHT22;9573;50.948;11.600;2022-07-19T06:48:07;39.10;42.20
18882;DHT22;9573;50.948;11.600;2022-07-19T06:50:34;39.50;41.80
18882;DHT22;9573;50.948;11.600;2022-07-19T06:53:01;39.50;41.50
18882;DHT22;9573;50.948;11.600;2022-07-19T06:55:28;39.80;40.10
18882;DHT22;9573;50.948;11.600;2022-07-19T06:57:56;39.80;40.20
18882;DHT22;9573;50.948;11.600;2022-07-19T07:00:23;40.20;39.90
18882;DHT22;9573;50.948;11.600;2022-07-19T07:02:50;40.20;39.90
18882;DHT22;9573;50.948;11.600;2022-07-19T07:05:19;40.70;39.80
18882;DHT22;9573;50.948;11.600;2022-07-19T07:07:46;41.70;38.60
18882;DHT22;9573;50.948;11.600;2022-07-19T07:10:17;42.00;37.80
18882;DHT22;9573;50.948;11.600;2022-07-19T07:12:44;42.20;37.20
18882;DHT22;9573;50.948;11.600;2022-07-19T07:15:11;43.00;36.70
18882;DHT22;9573;50.948;11.600;2022-07-19T07:17:39;43.60;36.20
18882;DHT22;9573;50.948;11.600;2022-07-19T07:20:07;44.20;34.90
18882;DHT22;9573;50.948;11.600;2022-07-19T07:22:37;44.80;34.10
18882;DHT22;9573;50.948;11.600;2022-07-19T07:25:05;45.30;33.70
18882;DHT22;9573;50.948;11.600;2022-07-19T07:27:33;45.40;33.20
18882;DHT22;9573;50.948;11.600;2022-07-19T07:30:00;45.00;33.30
18882;DHT22;9573;50.948;11.600;2022-07-19T07:32:27;45.40;33.10
18882;DHT22;9573;50.948;11.600;2022-07-19T07:34:54;45.70;32.70
18882;DHT22;9573;50.948;11.600;2022-07-19T07:37:21;45.90;32.50
18882;DHT22;9573;50.948;11.600;2022-07-19T07:39:50;46.80;32.20
18882;DHT22;9573;50.948;11.600;2022-07-19T07:42:17;47.70;31.30
18882;DHT22;9573;50.948;11.600;2022-07-19T07:44:44;47.90;31.00
18882;DHT22;9573;50.948;11.600;2022-07-19T07:47:11;47.60;30.60
18882;DHT22;9573;50.948;11.600;2022-07-19T07:49:39;48.40;30.30
18882;DHT22;9573;50.948;11.600;2022-07-19T07:52:07;49.10;30.00
18882;DHT22;9573;50.948;11.600;2022-07-19T07:54:34;49.50;29.70
18882;DHT22;9573;50.948;11.600;2022-07-19T07:57:03;49.50;29.60
18882;DHT22;9573;50.948;11.600;2022-07-19T07:59:30;49.30;29.50
18882;DHT22;9573;50.948;11.600;2022-07-19T08:01:57;49.20;29.30
18882;DHT22;9573;50.948;11.600;2022-07-19T08:04:25;50.00;29.40
18882;DHT22;9573;50.948;11.600;2022-07-19T08:06:52;49.50;29.40
18882;DHT22;9573;50.948;11.600;2022-07-19T08:09:19;49.40;29.20
18882;DHT22;9573;50.948;11.600;2022-07-19T08:11:47;50.10;29.10
18882;DHT22;9573;50.948;11.600;2022-07-19T08:14:15;50.00;28.50
18882;DHT22;9573;50.948;11.600;2022-07-19T08:16:42;50.00;28.50
18882;DHT22;9573;50.948;11.600;2022-07-19T08:19:09;50.00;28.70
18882;DHT22;9573;50.948;11.600;2022-07-19T08:21:36;50.60;28.70
18882;DHT22;9573;50.948;11.600;2022-07-19T08:24:04;51.00;28.40
18882;DHT22;9573;50.948;11.600;2022-07-19T08:26:32;50.60;28.10
18882;DHT22;9573;50.948;11.600;2022-07-19T08:28:59;51.30;28.00
18882;DHT22;9573;50.948;11.600;2022-07-19T08:31:27;51.80;27.80
18882;DHT22;9573;50.948;11.600;2022-07-19T08:33:54;52.20;27.40
18882;DHT22;9573;50.948;11.600;2022-07-19T08:36:22;52.50;27.10
18882;DHT22;9573;50.948;11.600;2022-07-19T08:38:49;52.50;27.10
18882;DHT22;9573;50.948;11.600;2022-07-19T08:41:16;52.60;27.10
18882;DHT22;9573;50.948;11.600;2022-07-19T08:43:43;52.50;26.90
18882;DHT22;9573;50.948;11.600;2022-07-19T08:46:10;52.40;27.30
18882;DHT22;9573;50.948;11.600;2022-07-19T08:48:39;52.90;27.00
18882;DHT22;9573;50.948;11.600;2022-07-19T08:51:07;52.40;26.20
18882;DHT22;9573;50.948;11.600;2022-07-19T08:53:34;52.60;26.70
18882;DHT22;9573;50.948;11.600;2022-07-19T08:56:06;52.20;26.80
18882;DHT22;9573;50.948;11.600;2022-07-19T08:58:48;52.20;26.90
18882;DHT22;9573;50.948;11.600;2022-07-19T09:01:15;52.10;26.90
18882;DHT22;9573;50.948;11.600;2022-07-19T09:04:09;51.90;27.10
18882;DHT22;9573;50.948;11.600;2022-07-19T09:06:43;51.90;27.10
18882;DHT22;9573;50.948;11.600;2022-07-19T09:09:12;51.70;26.90
18882;DHT22;9573;50.948;11.600;2022-07-19T09:11:41;51.60;26.70
18882;DHT22;9573;50.948;11.600;2022-07-19T09:14:16;51.40;26.70
18882;DHT22;9573;50.948;11.600;2022-07-19T09:16:49;51.80;26.20
18882;DHT22;9573;50.948;11.600;2022-07-19T09:19:29;51.30;25.50
18882;DHT22;9573;50.948;11.600;2022-07-19T09:22:00;51.50;25.60
18882;DHT22;9573;50.948;11.600;2022-07-19T09:24:29;51.30;25.30
18882;DHT22;9573;50.948;11.600;2022-07-19T09:27:00;51.50;25.40
18882;DHT22;9573;50.948;11.600;2022-07-19T09:29:31;51.80;25.40
18882;DHT22;9573;50.948;11.600;2022-07-19T09:32:08;51.60;25.00
18882;DHT22;9573;50.948;11.600;2022-07-19T09:34:39;51.60;25.30
18882;DHT22;9573;50.948;11.600;2022-07-19T09:37:16;51.50;25.40
18882;DHT22;9573;50.948;11.600;2022-07-19T09:39:47;51.20;25.00
18882;DHT22;9573;50.948;11.600;2022-07-19T09:42:17;50.90;25.30
18882;DHT22;9573;50.948;11.600;2022-07-19T09:44:44;51.40;25.10
18882;DHT22;9573;50.948;11.600;2022-07-19T09:47:12;50.70;24.80
18882;DHT22;9573;50.948;11.600;2022-07-19T09:49:41;50.30;25.10
18882;DHT22;9573;50.948;11.600;2022-07-19T09:52:08;50.00;24.60
18882;DHT22;9573;50.948;11.600;2022-07-19T09:54:38;50.00;24.90
18882;DHT22;9573;50.948;11.600;2022-07-19T09:57:07;50.40;25.10
18882;DHT22;9573;50.948;11.600;2022-07-19T09:59:35;50.40;24.70
18882;DHT22;9573;50.948;11.600;2022-07-19T10:02:04;50.50;24.90
18882;DHT22;9573;50.948;11.600;2022-07-19T10:04:32;50.70;24.80
18882;DHT22;9573;50.948;11.600;2022-07-19T10:07:02;51.00;24.80
18882;DHT22;9573;50.948;11.600;2022-07-19T10:09:30;51.40;24.70
18882;DHT22;9573;50.948;11.600;2022-07-19T10:11:57;51.10;24.70
18882;DHT22;9573;50.948;11.600;2022-07-19T10:14:24;50.40;24.60
18882;DHT22;9573;50.948;11.600;2022-07-19T10:17:01;50.80;24.60
18882;DHT22;9573;50.948;11.600;2022-07-19T10:19:36;51.30;24.60
18882;DHT22;9573;50.948;11.600;2022-07-19T10:22:09;51.30;24.40
18882;DHT22;9573;50.948;11.600;2022-07-19T10:24:51;51.30;23.90
18882;DHT22;9573;50.948;11.600;2022-07-19T10:27:36;51.60;24.20
18882;DHT22;9573;50.948;11.600;2022-07-19T10:30:23;52.00;24.20
18882;DHT22;9573;50.948;11.600;2022-07-19T10:32:55;50.90;23.90
18882;DHT22;9573;50.948;11.600;2022-07-19T10:35:28;50.90;24.50
18882;DHT22;9573;50.948;11.600;2022-07-19T10:38:07;51.00;24.10
18882;DHT22;9573;50.948;11.600;2022-07-19T10:40:40;51.50;24.20
18882;DHT22;9573;50.948;11.600;2022-07-19T10:43:11;51.10;23.80
18882;DHT22;9573;50.948;11.600;2022-07-19T10:45:40;51.50;24.10
18882;DHT22;9573;50.948;11.600;2022-07-19T10:48:16;51.80;23.90
18882;DHT22;9573;50.948;11.600;2022-07-19T10:50:54;52.10;24.00
18882;DHT22;9573;50.948;11.600;2022-07-19T10:54:05;52.30;24.10
18882;DHT22;9573;50.948;11.600;2022-07-19T10:56:41;51.90;23.90
18882;DHT22;9573;50.948;11.600;2022-07-19T10:59:11;51.00;24.40
18882;DHT22;9573;50.948;11.600;2022-07-19T11:01:54;50.50;24.50
18882;DHT22;9573;50.948;11.600;2022-07-19T11:04:27;49.90;24.40
18882;DHT22;9573;50.948;11.600;2022-07-19T11:07:13;50.30;24.40
18882;DHT22;9573;50.948;11.600;2022-07-19T11:09:48;51.10;24.40
18882;DHT22;9573;50.948;11.600;2022-07-19T11:15:11;51.10;24.30
18882;DHT22;9573;50.948;11.600;2022-07-19T11:17:38;51.00;24.40
18882;DHT22;9573;50.948;11.600;2022-07-19T11:20:10;50.80;24.60
18882;DHT22;9573;50.948;11.600;2022-07-19T11:22:43;50.80;24.60
18882;DHT22;9573;50.948;11.600;2022-07-19T11:25:14;50.50;24.20
18882;DHT22;9573;50.948;11.600;2022-07-19T11:27:43;51.50;24.40
18882;DHT22;9573;50.948;11.600;2022-07-19T11:30:12;51.80;24.30
18882;DHT22;9573;50.948;11.600;2022-07-19T11:32:40;52.50;23.90
18882;DHT22;9573;50.948;11.600;2022-07-19T11:35:10;52.70;23.60
18882;DHT22;9573;50.948;11.600;2022-07-19T11:37:41;52.50;23.60
18882;DHT22;9573;50.948;11.600;2022-07-19T11:40:11;51.10;23.10
18882;DHT22;9573;50.948;11.600;2022-07-19T11:42:42;51.00;23.90
18882;DHT22;9573;50.948;11.600;2022-07-19T11:45:12;51.00;23.80
18882;DHT22;9573;50.948;11.600;2022-07-19T11:47:42;51.20;23.70
18882;DHT22;9573;50.948;11.600;2022-07-19T11:50:12;51.50;23.70
18882;DHT22;9573;50.948;11.600;2022-07-19T11:52:49;51.60;23.60
18882;DHT22;9573;50.948;11.600;2022-07-19T11:55:21;52.10;23.60
18882;DHT22;9573;50.948;11.600;2022-07-19T11:57:49;52.70;23.40
18882;DHT22;9573;50.948;11.600;2022-07-19T12:00:18;53.00;23.40
18882;DHT22;9573;50.948;11.600;2022-07-19T12:03:06;52.70;23.30
18882;DHT22;9573;50.948;11.600;2022-07-19T12:05:35;51.90;23.50
18882;DHT22;9573;50.948;11.600;2022-07-19T12:08:05;51.80;23.50
18882;DHT22;9573;50.948;11.600;2022-07-19T12:10:40;51.40;23.70
18882;DHT22;9573;50.948;11.600;2022-07-19T12:13:10;51.60;23.40
18882;DHT22;9573;50.948;11.600;2022-07-19T12:15:46;51.70;23.50
18882;DHT22;9573;50.948;11.600;2022-07-19T12:18:16;51.70;23.40
18882;DHT22;9573;50.948;11.600;2022-07-19T12:20:45;51.80;23.50
18882;DHT22;9573;50.948;11.600;2022-07-19T12:23:14;51.50;23.50
18882;DHT22;9573;50.948;11.600;2022-07-19T12:25:44;51.30;23.60
18882;DHT22;9573;50.948;11.600;2022-07-19T12:28:11;51.40;23.60
18882;DHT22;9573;50.948;11.600;2022-07-19T12:30:38;51.30;23.60
18882;DHT22;9573;50.948;11.600;2022-07-19T12:33:08;51.00;23.70
18882;DHT22;9573;50.948;11.600;2022-07-19T12:35:44;51.00;23.70
18882;DHT22;9573;50.948;11.600;2022-07-19T12:38:12;50.90;23.60
18882;DHT22;9573;50.948;11.600;2022-07-19T12:40:40;50.70;23.70
18882;DHT22;9573;50.948;11.600;2022-07-19T12:43:10;50.40;23.70
18882;DHT22;9573;50.948;11.600;2022-07-19T12:45:40;50.30;23.70
18882;DHT22;9573;50.948;11.600;2022-07-19T12:48:10;49.60;23.50
18882;DHT22;9573;50.948;11.600;2022-07-19T12:50:41;49.50;24.10
18882;DHT22;9573;50.948;11.600;2022-07-19T12:53:10;48.30;24.50
18882;DHT22;9573;50.948;11.600;2022-07-19T12:55:40;47.30;25.10
18882;DHT22;9573;50.948;11.600;2022-07-19T12:58:12;46.50;25.30
18882;DHT22;9573;50.948;11.600;2022-07-19T13:01:00;45.80;26.30
18882;DHT22;9573;50.948;11.600;2022-07-19T13:03:27;45.00;26.50
18882;DHT22;9573;50.948;11.600;2022-07-19T13:05:54;43.60;26.80
18882;DHT22;9573;50.948;11.600;2022-07-19T13:08:21;42.10;27.50
18882;DHT22;9573;50.948;11.600;2022-07-19T13:10:48;41.10;28.30
18882;DHT22;9573;50.948;11.600;2022-07-19T13:13:18;40.20;28.50
18882;DHT22;9573;50.948;11.600;2022-07-19T13:15:45;39.50;29.20
18882;DHT22;9573;50.948;11.600;2022-07-19T13:18:12;39.20;29.70
18882;DHT22;9573;50.948;11.600;2022-07-19T13:20:39;38.60;30.00
18882;DHT22;9573;50.948;11.600;2022-07-19T13:23:06;38.20;30.00
18882;DHT22;9573;50.948;11.600;2022-07-19T13:25:33;38.20;30.10
18882;DHT22;9573;50.948;11.600;2022-07-19T13:28:00;38.00;30.50
18882;DHT22;9573;50.948;11.600;2022-07-19T13:30:29;37.60;30.10
18882;DHT22;9573;50.948;11.600;2022-07-19T13:32:57;37.60;30.10
18882;DHT22;9573;50.948;11.600;2022-07-19T13:35:24;37.60;30.50
18882;DHT22;9573;50.948;11.600;2022-07-19T13:37:51;37.80;30.80
18882;DHT22;9573;50.948;11.600;2022-07-19T13:40:18;37.60;30.50
18882;DHT22;9573;50.948;11.600;2022-07-19T13:42:45;37.50;31.80
18882;DHT22;9573;50.948;11.600;2022-07-19T13:45:13;37.20;30.60
18882;DHT22;9573;50.948;11.600;2022-07-19T13:47:41;36.90;31.10
18882;DHT22;9573;50.948;11.600;2022-07-19T13:50:09;36.80;31.60
18882;DHT22;9573;50.948;11.600;2022-07-19T13:52:36;36.70;31.50
18882;DHT22;9573;50.948;11.600;2022-07-19T13:55:04;36.50;31.30
18882;DHT22;9573;50.948;11.600;2022-07-19T13:57:32;36.50;31.20
18882;DHT22;9573;50.948;11.600;2022-07-19T13:59:59;36.60;31.10
18882;DHT22;9573;50.948;11.600;2022-07-19T14:02:26;36.60;31.40
18882;DHT22;9573;50.948;11.600;2022-07-19T14:04:54;36.70;31.50
18882;DHT22;9573;50.948;11.600;2022-07-19T14:07:21;36.80;31.40
18882;DHT22;9573;50.948;11.600;2022-07-19T14:09:49;36.80;31.60
18882;DHT22;9573;50.948;11.600;2022-07-19T14:12:16;36.80;31.40
18882;DHT22;9573;50.948;11.600;2022-07-19T14:14:43;36.70;31.30
18882;DHT22;9573;50.948;11.600;2022-07-19T14:17:10;36.70;32.20
18882;DHT22;9573;50.948;11.600;2022-07-19T14:19:37;36.60;31.70
18882;DHT22;9573;50.948;11.600;2022-07-19T14:22:05;36.60;32.10
18882;DHT22;9573;50.948;11.600;2022-07-19T14:24:33;36.60;32.20
18882;DHT22;9573;50.948;11.600;2022-07-19T14:27:00;36.60;31.90
18882;DHT22;9573;50.948;11.600;2022-07-19T14:29:27;36.60;32.00
18882;DHT22;9573;50.948;11.600;2022-07-19T14:31:55;36.70;31.90
18882;DHT22;9573;50.948;11.600;2022-07-19T14:34:22;36.50;31.80
18882;DHT22;9573;50.948;11.600;2022-07-19T14:36:49;36.60;32.00
18882;DHT22;9573;50.948;11.600;2022-07-19T14:39:18;36.60;31.80
18882;DHT22;9573;50.948;11.600;2022-07-19T14:41:45;36.60;31.50
18882;DHT22;9573;50.948;11.600;2022-07-19T14:44:12;36.50;31.80
18882;DHT22;9573;50.948;11.600;2022-07-19T14:46:40;36.50;31.90
18882;DHT22;9573;50.948;11.600;2022-07-19T14:49:07;36.50;32.10
18882;DHT22;9573;50.948;11.600;2022-07-19T14:51:34;36.40;32.40
18882;DHT22;9573;50.948;11.600;2022-07-19T14:54:02;36.40;32.10
18882;DHT22;9573;50.948;11.600;2022-07-19T14:56:31;36.40;31.90
18882;DHT22;9573;50.948;11.600;2022-07-19T14:58:58;36.40;32.20
18882;DHT22;9573;50.948;11.600;2022-07-19T15:01:25;36.40;32.40
18882;DHT22;9573;50.948;11.600;2022-07-19T15:03:52;36.30;32.50
18882;DHT22;9573;50.948;11.600;2022-07-19T15:06:19;36.30;32.50
18882;DHT22;9573;50.948;11.600;2022-07-19T15:08:47;36.10;32.60
18882;DHT22;9573;50.948;11.600;2022-07-19T15:11:14;36.20;33.10
18882;DHT22;9573;50.948;11.600;2022-07-19T15:13:42;36.20;32.70
18882;DHT22;9573;50.948;11.600;2022-07-19T15:16:10;36.20;32.70
18882;DHT22;9573;50.948;11.600;2022-07-19T15:18:37;36.10;32.60
18882;DHT22;9573;50.948;11.600;2022-07-19T15:21:04;36.20;32.90
18882;DHT22;9573;50.948;11.600;2022-07-19T15:23:31;36.00;33.30
18882;DHT22;9573;50.948;11.600;2022-07-19T15:25:59;35.80;33.30
18882;DHT22;9573;50.948;11.600;2022-07-19T15:28:26;35.90;33.40
18882;DHT22;9573;50.948;11.600;2022-07-19T15:30:55;35.90;33.30
18882;DHT22;9573;50.948;11.600;2022-07-19T15:33:22;35.90;33.30
18882;DHT22;9573;50.948;11.600;2022-07-19T15:35:49;35.80;33.50
18882;DHT22;9573;50.948;11.600;2022-07-19T15:38:17;35.80;34.10
18882;DHT22;9573;50.948;11.600;2022-07-19T15:40:44;35.70;34.00
18882;DHT22;9573;50.948;11.600;2022-07-19T15:43:11;35.70;34.10